sensor_id;sensor_type;location;lat;lon;timestamp;temperature;humidity
68189;DHT22;66299;47.514;19.218;2023-06-04T00:00:16;10.54;76.75
68189;DHT22;66299;47.514;19.218;2023-06-04T00:02:45;10.47;76.79
68189;DHT22;66299;47.514;19.218;2023-06-04T00:05:14;10.34;77.17
68189;DHT22;66299;47.514;19.218;2023-06-04T00:07:43;10.33;77.87
68189;DHT22;66299;47.514;19.218;2023-06-04T00:10:12;10.33;78.19
68189;DHT22;66299;47.514;19.218;2023-06-04T00:12:41;10.32;78.27
68189;DHT22;66299;47.514;19.218;2023-06-04T00:15:13;10.32;78.27
68189;DHT22;66299;47.514;19.218;2023-06-04T00:17:44;10.30;78.61
68189;DHT22;66299;47.514;19.218;2023-06-04T00:20:12;10.33;78.85
68189;DHT22;66299;47.514;19.218;2023-06-04T00:22:41;10.17;79.69
68189;DHT22;66299;47.514;19.218;2023-06-04T00:25:12;10.16;82.12
68189;DHT22;66299;47.514;19.218;2023-06-04T00:27:41;10.10;81.76
68189;DHT22;66299;47.514;19.218;2023-06-04T00:30:12;10.06;81.11
68189;DHT22;66299;47.514;19.218;2023-06-04T00:32:41;10.08;80.73
68189;DHT22;66299;47.514;19.218;2023-06-04T00:35:10;9.96;80.89
68189;DHT22;66299;47.514;19.218;2023-06-04T00:37:39;9.91;81.11
68189;DHT22;66299;47.514;19.218;2023-06-04T00:40:08;9.86;81.61
68189;DHT22;66299;47.514;19.218;2023-06-04T00:42:38;9.86;82.58
68189;DHT22;66299;47.514;19.218;2023-06-04T00:45:08;9.79;82.43
68189;DHT22;66299;47.514;19.218;2023-06-04T00:47:39;9.85;82.82
68189;DHT22;66299;47.514;19.218;2023-06-04T00:50:09;9.96;82.86
68189;DHT22;66299;47.514;19.218;2023-06-04T00:52:39;9.88;82.40
68189;DHT22;66299;47.514;19.218;2023-06-04T00:55:10;9.74;82.46
68189;DHT22;66299;47.514;19.218;2023-06-04T00:57:38;9.68;83.51
68189;DHT22;66299;47.514;19.218;2023-06-04T01:00:07;9.77;83.04
68189;DHT22;66299;47.514;19.218;2023-06-04T01:02:39;9.67;83.54
68189;DHT22;66299;47.514;19.218;2023-06-04T01:05:16;9.67;84.24
68189;DHT22;66299;47.514;19.218;2023-06-04T01:07:46;9.67;84.32
68189;DHT22;66299;47.514;19.218;2023-06-04T01:10:17;9.68;84.98
68189;DHT22;66299;47.514;19.218;2023-06-04T01:12:46;9.67;84.59
68189;DHT22;66299;47.514;19.218;2023-06-04T01:15:15;9.64;84.55
68189;DHT22;66299;47.514;19.218;2023-06-04T01:17:48;9.58;85.19
68189;DHT22;66299;47.514;19.218;2023-06-04T01:20:33;9.51;84.96
68189;DHT22;66299;47.514;19.218;2023-06-04T01:23:14;9.44;85.28
68189;DHT22;66299;47.514;19.218;2023-06-04T01:25:48;9.47;87.39
68189;DHT22;66299;47.514;19.218;2023-06-04T01:28:19;9.33;86.93
68189;DHT22;66299;47.514;19.218;2023-06-04T01:30:48;9.38;87.24
68189;DHT22;66299;47.514;19.218;2023-06-04T01:33:19;9.33;87.46
68189;DHT22;66299;47.514;19.218;2023-06-04T01:35:48;9.38;88.22
68189;DHT22;66299;47.514;19.218;2023-06-04T01:38:18;9.28;88.08
68189;DHT22;66299;47.514;19.218;2023-06-04T01:40:47;9.20;87.97
68189;DHT22;66299;47.514;19.218;2023-06-04T01:43:15;9.20;87.92
68189;DHT22;66299;47.514;19.218;2023-06-04T01:45:44;9.22;87.48
68189;DHT22;66299;47.514;19.218;2023-06-04T01:48:13;9.12;87.91
68189;DHT22;66299;47.514;19.218;2023-06-04T01:50:43;9.23;88.22
68189;DHT22;66299;47.514;19.218;2023-06-04T01:53:12;9.13;87.86
68189;DHT22;66299;47.514;19.218;2023-06-04T01:55:41;9.16;87.76
68189;DHT22;66299;47.514;19.218;2023-06-04T01:58:12;9.17;87.36
68189;DHT22;66299;47.514;19.218;2023-06-04T02:00:41;9.13;87.22
68189;DHT22;66299;47.514;19.218;2023-06-04T02:03:10;9.24;87.24
68189;DHT22;66299;47.514;19.218;2023-06-04T02:05:39;9.22;86.87
68189;DHT22;66299;47.514;19.218;2023-06-04T02:08:17;9.22;86.30
68189;DHT22;66299;47.514;19.218;2023-06-04T02:10:46;9.23;87.17
68189;DHT22;66299;47.514;19.218;2023-06-04T02:13:16;9.17;87.37
68189;DHT22;66299;47.514;19.218;2023-06-04T02:15:46;9.12;87.33
68189;DHT22;66299;47.514;19.218;2023-06-04T02:18:17;9.05;88.60
68189;DHT22;66299;47.514;19.218;2023-06-04T02:20:49;9.16;88.74
68189;DHT22;66299;47.514;19.218;2023-06-04T02:23:24;9.15;88.57
68189;DHT22;66299;47.514;19.218;2023-06-04T02:25:53;9.06;89.00
68189;DHT22;66299;47.514;19.218;2023-06-04T02:28:21;9.00;88.51
68189;DHT22;66299;47.514;19.218;2023-06-04T02:30:50;8.96;88.54
68189;DHT22;66299;47.514;19.218;2023-06-04T02:33:20;9.10;87.85
68189;DHT22;66299;47.514;19.218;2023-06-04T02:35:51;9.17;87.52
68189;DHT22;66299;47.514;19.218;2023-06-04T02:38:20;9.19;87.57
68189;DHT22;66299;47.514;19.218;2023-06-04T02:40:51;9.27;87.82
68189;DHT22;66299;47.514;19.218;2023-06-04T02:43:19;9.26;88.22
68189;DHT22;66299;47.514;19.218;2023-06-04T02:45:48;9.28;88.18
68189;DHT22;66299;47.514;19.218;2023-06-04T02:48:17;9.31;88.63
68189;DHT22;66299;47.514;19.218;2023-06-04T02:50:45;9.51;87.94
68189;DHT22;66299;47.514;19.218;2023-06-04T02:53:15;9.52;88.06
68189;DHT22;66299;47.514;19.218;2023-06-04T02:55:43;9.44;89.01
68189;DHT22;66299;47.514;19.218;2023-06-04T02:58:14;9.22;88.91
68189;DHT22;66299;47.514;19.218;2023-06-04T03:00:47;9.24;89.65
68189;DHT22;66299;47.514;19.218;2023-06-04T03:03:16;9.13;89.58
68189;DHT22;66299;47.514;19.218;2023-06-04T03:05:44;9.16;89.58
68189;DHT22;66299;47.514;19.218;2023-06-04T03:08:17;9.17;89.21
68189;DHT22;66299;47.514;19.218;2023-06-04T03:10:46;9.13;89.56
68189;DHT22;66299;47.514;19.218;2023-06-04T03:13:16;9.16;89.15
68189;DHT22;66299;47.514;19.218;2023-06-04T03:15:44;9.10;88.21
68189;DHT22;66299;47.514;19.218;2023-06-04T03:18:15;9.12;87.21
68189;DHT22;66299;47.514;19.218;2023-06-04T03:20:44;9.20;87.89
68189;DHT22;66299;47.514;19.218;2023-06-04T03:23:12;9.20;86.61
68189;DHT22;66299;47.514;19.218;2023-06-04T03:25:42;9.24;86.13
68189;DHT22;66299;47.514;19.218;2023-06-04T03:28:11;9.23;87.19
68189;DHT22;66299;47.514;19.218;2023-06-04T03:30:41;9.24;86.80
68189;DHT22;66299;47.514;19.218;2023-06-04T03:33:12;9.31;86.52
68189;DHT22;66299;47.514;19.218;2023-06-04T03:35:41;9.33;85.90
68189;DHT22;66299;47.514;19.218;2023-06-04T03:38:10;9.43;86.23
68189;DHT22;66299;47.514;19.218;2023-06-04T03:40:39;9.58;85.60
68189;DHT22;66299;47.514;19.218;2023-06-04T03:43:09;9.64;86.66
68189;DHT22;66299;47.514;19.218;2023-06-04T03:45:38;9.81;87.12
68189;DHT22;66299;47.514;19.218;2023-06-04T03:48:09;9.77;86.51
68189;DHT22;66299;47.514;19.218;2023-06-04T03:50:38;9.81;84.75
68189;DHT22;66299;47.514;19.218;2023-06-04T03:53:07;9.84;85.44
68189;DHT22;66299;47.514;19.218;2023-06-04T03:55:36;9.91;85.72
68189;DHT22;66299;47.514;19.218;2023-06-04T03:58:04;10.10;85.60
68189;DHT22;66299;47.514;19.218;2023-06-04T04:00:36;10.37;83.00
68189;DHT22;66299;47.514;19.218;2023-06-04T04:03:05;10.68;81.07
68189;DHT22;66299;47.514;19.218;2023-06-04T04:05:36;10.92;80.07
68189;DHT22;66299;47.514;19.218;2023-06-04T04:08:05;11.23;80.25
68189;DHT22;66299;47.514;19.218;2023-06-04T04:10:36;11.56;79.85
68189;DHT22;66299;47.514;19.218;2023-06-04T04:13:04;11.73;79.82
68189;DHT22;66299;47.514;19.218;2023-06-04T04:15:33;11.93;79.23
68189;DHT22;66299;47.514;19.218;2023-06-04T04:18:03;11.98;79.49
68189;DHT22;66299;47.514;19.218;2023-06-04T04:20:37;12.20;81.65
68189;DHT22;66299;47.514;19.218;2023-06-04T04:23:09;12.34;81.35
68189;DHT22;66299;47.514;19.218;2023-06-04T04:25:38;12.34;80.26
68189;DHT22;66299;47.514;19.218;2023-06-04T04:28:06;12.42;78.55
68189;DHT22;66299;47.514;19.218;2023-06-04T04:30:35;12.36;78.28
68189;DHT22;66299;47.514;19.218;2023-06-04T04:33:05;12.32;79.14
68189;DHT22;66299;47.514;19.218;2023-06-04T04:35:34;12.34;78.58
68189;DHT22;66299;47.514;19.218;2023-06-04T04:38:05;12.39;79.50
68189;DHT22;66299;47.514;19.218;2023-06-04T04:40:34;12.48;79.98
68189;DHT22;66299;47.514;19.218;2023-06-04T04:43:02;12.52;78.43
68189;DHT22;66299;47.514;19.218;2023-06-04T04:45:32;12.62;76.60
68189;DHT22;66299;47.514;19.218;2023-06-04T04:48:00;12.72;76.55
68189;DHT22;66299;47.514;19.218;2023-06-04T04:50:29;12.84;76.92
68189;DHT22;66299;47.514;19.218;2023-06-04T04:53:00;12.99;75.92
68189;DHT22;66299;47.514;19.218;2023-06-04T04:55:30;13.14;77.04
68189;DHT22;66299;47.514;19.218;2023-06-04T04:58:00;13.32;77.38
68189;DHT22;66299;47.514;19.218;2023-06-04T05:00:29;13.37;75.77
68189;DHT22;66299;47.514;19.218;2023-06-04T05:02:57;13.52;75.29
68189;DHT22;66299;47.514;19.218;2023-06-04T05:05:28;13.78;73.50
68189;DHT22;66299;47.514;19.218;2023-06-04T05:07:58;13.95;72.83
68189;DHT22;66299;47.514;19.218;2023-06-04T05:10:27;13.96;71.20
68189;DHT22;66299;47.514;19.218;2023-06-04T05:12:57;14.38;71.98
68189;DHT22;66299;47.514;19.218;2023-06-04T05:15:27;14.58;69.65
68189;DHT22;66299;47.514;19.218;2023-06-04T05:18:01;14.68;69.48
68189;DHT22;66299;47.514;19.218;2023-06-04T05:20:31;14.91;68.45
68189;DHT22;66299;47.514;19.218;2023-06-04T05:23:00;14.95;68.26
68189;DHT22;66299;47.514;19.218;2023-06-04T05:25:30;15.12;68.12
68189;DHT22;66299;47.514;19.218;2023-06-04T05:28:01;15.07;68.77
68189;DHT22;66299;47.514;19.218;2023-06-04T05:30:30;14.84;67.38
68189;DHT22;66299;47.514;19.218;2023-06-04T05:33:05;14.92;68.02
68189;DHT22;66299;47.514;19.218;2023-06-04T05:35:35;15.03;69.97
68189;DHT22;66299;47.514;19.218;2023-06-04T05:38:08;15.07;69.65
68189;DHT22;66299;47.514;19.218;2023-06-04T05:40:37;15.30;69.83
68189;DHT22;66299;47.514;19.218;2023-06-04T05:43:07;15.37;70.09
68189;DHT22;66299;47.514;19.218;2023-06-04T05:45:36;15.34;69.58
68189;DHT22;66299;47.514;19.218;2023-06-04T05:48:05;15.46;69.69
68189;DHT22;66299;47.514;19.218;2023-06-04T05:50:35;15.63;65.96
68189;DHT22;66299;47.514;19.218;2023-06-04T05:53:03;15.64;66.74
68189;DHT22;66299;47.514;19.218;2023-06-04T05:55:32;15.84;66.10
68189;DHT22;66299;47.514;19.218;2023-06-04T05:58:08;15.98;65.01
68189;DHT22;66299;47.514;19.218;2023-06-04T06:00:38;16.32;63.05
68189;DHT22;66299;47.514;19.218;2023-06-04T06:03:10;16.53;63.31
68189;DHT22;66299;47.514;19.218;2023-06-04T06:05:39;16.69;63.89
68189;DHT22;66299;47.514;19.218;2023-06-04T06:08:09;17.01;64.79
68189;DHT22;66299;47.514;19.218;2023-06-04T06:10:38;17.08;65.16
68189;DHT22;66299;47.514;19.218;2023-06-04T06:13:08;17.08;64.47
68189;DHT22;66299;47.514;19.218;2023-06-04T06:15:40;16.97;63.03
68189;DHT22;66299;47.514;19.218;2023-06-04T06:18:12;16.83;63.62
68189;DHT22;66299;47.514;19.218;2023-06-04T06:20:45;17.11;62.18
68189;DHT22;66299;47.514;19.218;2023-06-04T06:23:15;17.42;61.73
68189;DHT22;66299;47.514;19.218;2023-06-04T06:25:46;17.69;59.56
68189;DHT22;66299;47.514;19.218;2023-06-04T06:28:17;17.87;61.17
68189;DHT22;66299;47.514;19.218;2023-06-04T06:30:47;17.98;58.41
68189;DHT22;66299;47.514;19.218;2023-06-04T06:33:16;17.93;57.78
68189;DHT22;66299;47.514;19.218;2023-06-04T06:35:49;18.13;57.93
68189;DHT22;66299;47.514;19.218;2023-06-04T06:38:17;18.15;56.71
68189;DHT22;66299;47.514;19.218;2023-06-04T06:40:46;18.40;58.39
68189;DHT22;66299;47.514;19.218;2023-06-04T06:43:19;18.66;55.75
68189;DHT22;66299;47.514;19.218;2023-06-04T06:45:48;19.09;56.20
68189;DHT22;66299;47.514;19.218;2023-06-04T06:48:16;19.34;56.49
68189;DHT22;66299;47.514;19.218;2023-06-04T06:50:45;19.47;57.36
68189;DHT22;66299;47.514;19.218;2023-06-04T06:53:14;19.50;54.11
68189;DHT22;66299;47.514;19.218;2023-06-04T06:55:44;19.62;54.54
68189;DHT22;66299;47.514;19.218;2023-06-04T06:58:17;19.72;53.04
68189;DHT22;66299;47.514;19.218;2023-06-04T07:00:48;19.51;55.75
68189;DHT22;66299;47.514;19.218;2023-06-04T07:03:18;19.75;54.86
68189;DHT22;66299;47.514;19.218;2023-06-04T07:05:48;19.95;55.47
68189;DHT22;66299;47.514;19.218;2023-06-04T07:08:18;20.04;57.15
68189;DHT22;66299;47.514;19.218;2023-06-04T07:10:49;20.12;54.59
68189;DHT22;66299;47.514;19.218;2023-06-04T07:13:19;19.86;57.77
68189;DHT22;66299;47.514;19.218;2023-06-04T07:15:53;19.86;57.00
68189;DHT22;66299;47.514;19.218;2023-06-04T07:18:25;19.74;56.78
68189;DHT22;66299;47.514;19.218;2023-06-04T07:20:58;19.65;53.75
68189;DHT22;66299;47.514;19.218;2023-06-04T07:23:26;19.96;55.22
68189;DHT22;66299;47.514;19.218;2023-06-04T07:25:57;19.93;52.88
68189;DHT22;66299;47.514;19.218;2023-06-04T07:28:29;19.57;54.60
68189;DHT22;66299;47.514;19.218;2023-06-04T07:31:00;19.78;52.05
68189;DHT22;66299;47.514;19.218;2023-06-04T07:33:33;20.19;53.43
68189;DHT22;66299;47.514;19.218;2023-06-04T07:36:12;20.27;50.84
68189;DHT22;66299;47.514;19.218;2023-06-04T07:38:42;20.26;52.14
68189;DHT22;66299;47.514;19.218;2023-06-04T07:41:11;20.23;52.48
68189;DHT22;66299;47.514;19.218;2023-06-04T07:43:40;20.13;52.50
68189;DHT22;66299;47.514;19.218;2023-06-04T07:46:12;20.58;52.52
68189;DHT22;66299;47.514;19.218;2023-06-04T07:48:44;20.73;50.84
68189;DHT22;66299;47.514;19.218;2023-06-04T07:51:17;20.77;51.83
68189;DHT22;66299;47.514;19.218;2023-06-04T07:53:49;20.73;49.59
68189;DHT22;66299;47.514;19.218;2023-06-04T07:56:18;20.34;50.30
68189;DHT22;66299;47.514;19.218;2023-06-04T07:58:47;20.67;51.32
68189;DHT22;66299;47.514;19.218;2023-06-04T08:01:17;20.96;51.91
68189;DHT22;66299;47.514;19.218;2023-06-04T08:03:46;20.75;48.69
68189;DHT22;66299;47.514;19.218;2023-06-04T08:06:16;20.40;51.28
68189;DHT22;66299;47.514;19.218;2023-06-04T08:08:45;20.77;51.38
68189;DHT22;66299;47.514;19.218;2023-06-04T08:11:15;21.16;51.92
68189;DHT22;66299;47.514;19.218;2023-06-04T08:13:46;20.99;51.03
68189;DHT22;66299;47.514;19.218;2023-06-04T08:16:16;21.32;52.40
68189;DHT22;66299;47.514;19.218;2023-06-04T08:18:46;21.36;49.72
68189;DHT22;66299;47.514;19.218;2023-06-04T08:21:25;21.59;47.49
68189;DHT22;66299;47.514;19.218;2023-06-04T08:23:54;21.54;46.15
68189;DHT22;66299;47.514;19.218;2023-06-04T08:26:24;21.73;47.04
68189;DHT22;66299;47.514;19.218;2023-06-04T08:28:54;21.88;46.09
68189;DHT22;66299;47.514;19.218;2023-06-04T08:31:26;21.67;45.07
68189;DHT22;66299;47.514;19.218;2023-06-04T08:33:55;21.56;45.99
68189;DHT22;66299;47.514;19.218;2023-06-04T08:36:26;21.80;47.37
68189;DHT22;66299;47.514;19.218;2023-06-04T08:38:56;21.63;46.82
68189;DHT22;66299;47.514;19.218;2023-06-04T08:41:27;22.01;46.75
68189;DHT22;66299;47.514;19.218;2023-06-04T08:43:57;22.42;44.06
68189;DHT22;66299;47.514;19.218;2023-06-04T08:46:32;23.06;45.47
68189;DHT22;66299;47.514;19.218;2023-06-04T08:49:02;23.23;43.77
68189;DHT22;66299;47.514;19.218;2023-06-04T08:51:33;23.17;45.16
68189;DHT22;66299;47.514;19.218;2023-06-04T08:54:07;23.21;43.00
68189;DHT22;66299;47.514;19.218;2023-06-04T08:56:36;23.30;43.22
68189;DHT22;66299;47.514;19.218;2023-06-04T08:59:05;22.94;43.17
68189;DHT22;66299;47.514;19.218;2023-06-04T09:01:37;23.20;41.47
68189;DHT22;66299;47.514;19.218;2023-06-04T09:04:06;21.87;42.04
68189;DHT22;66299;47.514;19.218;2023-06-04T09:06:40;22.51;42.82
68189;DHT22;66299;47.514;19.218;2023-06-04T09:09:12;22.73;43.11
68189;DHT22;66299;47.514;19.218;2023-06-04T09:11:49;23.35;44.32
68189;DHT22;66299;47.514;19.218;2023-06-04T09:14:21;23.50;43.01
68189;DHT22;66299;47.514;19.218;2023-06-04T09:16:52;23.68;43.93
68189;DHT22;66299;47.514;19.218;2023-06-04T09:19:22;23.98;45.17
68189;DHT22;66299;47.514;19.218;2023-06-04T09:21:56;23.27;43.84
68189;DHT22;66299;47.514;19.218;2023-06-04T09:24:37;23.48;46.99
68189;DHT22;66299;47.514;19.218;2023-06-04T09:27:12;23.31;44.15
68189;DHT22;66299;47.514;19.218;2023-06-04T09:29:49;22.86;43.46
68189;DHT22;66299;47.514;19.218;2023-06-04T09:32:26;22.99;44.64
68189;DHT22;66299;47.514;19.218;2023-06-04T09:34:55;22.56;44.91
68189;DHT22;66299;47.514;19.218;2023-06-04T09:37:24;22.70;43.33
68189;DHT22;66299;47.514;19.218;2023-06-04T09:39:54;22.51;44.85
68189;DHT22;66299;47.514;19.218;2023-06-04T09:42:23;22.60;47.36
68189;DHT22;66299;47.514;19.218;2023-06-04T09:44:54;22.02;45.58
68189;DHT22;66299;47.514;19.218;2023-06-04T09:47:24;22.49;47.01
68189;DHT22;66299;47.514;19.218;2023-06-04T09:49:57;22.79;44.76
68189;DHT22;66299;47.514;19.218;2023-06-04T09:52:32;22.60;43.66
68189;DHT22;66299;47.514;19.218;2023-06-04T09:55:02;22.56;45.79
68189;DHT22;66299;47.514;19.218;2023-06-04T09:57:34;22.52;44.41
68189;DHT22;66299;47.514;19.218;2023-06-04T10:00:10;22.67;46.34
68189;DHT22;66299;47.514;19.218;2023-06-04T10:02:44;22.60;44.72
68189;DHT22;66299;47.514;19.218;2023-06-04T10:05:17;22.57;43.72
68189;DHT22;66299;47.514;19.218;2023-06-04T10:07:51;22.62;43.98
68189;DHT22;66299;47.514;19.218;2023-06-04T10:10:25;22.42;45.15
68189;DHT22;66299;47.514;19.218;2023-06-04T10:13:02;22.70;46.69
68189;DHT22;66299;47.514;19.218;2023-06-04T10:15:37;22.65;47.20
68189;DHT22;66299;47.514;19.218;2023-06-04T10:18:11;22.53;46.25
68189;DHT22;66299;47.514;19.218;2023-06-04T10:20:42;22.55;47.76
68189;DHT22;66299;47.514;19.218;2023-06-04T10:23:13;22.02;46.39
68189;DHT22;66299;47.514;19.218;2023-06-04T10:25:48;22.51;48.34
68189;DHT22;66299;47.514;19.218;2023-06-04T10:28:18;22.67;47.01
68189;DHT22;66299;47.514;19.218;2023-06-04T10:30:50;22.48;48.99
68189;DHT22;66299;47.514;19.218;2023-06-04T10:33:21;22.56;49.32
68189;DHT22;66299;47.514;19.218;2023-06-04T10:35:54;22.55;47.46
68189;DHT22;66299;47.514;19.218;2023-06-04T10:38:23;22.44;46.48
68189;DHT22;66299;47.514;19.218;2023-06-04T10:40:53;22.45;48.37
68189;DHT22;66299;47.514;19.218;2023-06-04T10:43:22;22.46;47.41
68189;DHT22;66299;47.514;19.218;2023-06-04T10:46:11;22.67;46.70
68189;DHT22;66299;47.514;19.218;2023-06-04T10:48:55;22.67;48.53
68189;DHT22;66299;47.514;19.218;2023-06-04T10:51:33;22.73;45.43
68189;DHT22;66299;47.514;19.218;2023-06-04T10:54:03;22.55;46.98
68189;DHT22;66299;47.514;19.218;2023-06-04T10:56:34;22.55;49.24
68189;DHT22;66299;47.514;19.218;2023-06-04T10:59:17;22.70;46.96
68189;DHT22;66299;47.514;19.218;2023-06-04T11:01:46;22.29;47.09
68189;DHT22;66299;47.514;19.218;2023-06-04T11:04:22;22.79;46.96
68189;DHT22;66299;47.514;19.218;2023-06-04T11:07:02;22.69;47.28
68189;DHT22;66299;47.514;19.218;2023-06-04T11:09:32;22.55;50.03
68189;DHT22;66299;47.514;19.218;2023-06-04T11:12:04;22.83;47.94
68189;DHT22;66299;47.514;19.218;2023-06-04T11:14:33;23.00;46.77
68189;DHT22;66299;47.514;19.218;2023-06-04T11:17:11;23.02;45.24
68189;DHT22;66299;47.514;19.218;2023-06-04T11:19:40;22.70;46.08
68189;DHT22;66299;47.514;19.218;2023-06-04T11:22:12;22.86;48.54
68189;DHT22;66299;47.514;19.218;2023-06-04T11:24:42;22.97;48.49
68189;DHT22;66299;47.514;19.218;2023-06-04T11:27:12;23.31;45.06
68189;DHT22;66299;47.514;19.218;2023-06-04T11:29:52;23.08;45.93
68189;DHT22;66299;47.514;19.218;2023-06-04T11:32:22;23.38;43.91
68189;DHT22;66299;47.514;19.218;2023-06-04T11:35:03;23.13;46.89
68189;DHT22;66299;47.514;19.218;2023-06-04T11:37:36;23.21;45.90
68189;DHT22;66299;47.514;19.218;2023-06-04T11:40:15;23.20;47.47
68189;DHT22;66299;47.514;19.218;2023-06-04T11:42:45;23.35;47.66
68189;DHT22;66299;47.514;19.218;2023-06-04T11:45:16;23.32;46.88
68189;DHT22;66299;47.514;19.218;2023-06-04T11:47:46;22.89;45.77
68189;DHT22;66299;47.514;19.218;2023-06-04T11:50:17;23.08;49.74
68189;DHT22;66299;47.514;19.218;2023-06-04T11:52:52;23.23;47.88
68189;DHT22;66299;47.514;19.218;2023-06-04T11:55:21;23.06;46.97
68189;DHT22;66299;47.514;19.218;2023-06-04T11:57:50;22.73;45.80
68189;DHT22;66299;47.514;19.218;2023-06-04T12:00:19;22.96;45.22
68189;DHT22;66299;47.514;19.218;2023-06-04T12:02:50;22.90;48.53
68189;DHT22;66299;47.514;19.218;2023-06-04T12:05:28;22.80;47.50
68189;DHT22;66299;47.514;19.218;2023-06-04T12:08:07;22.94;46.35
68189;DHT22;66299;47.514;19.218;2023-06-04T12:10:37;23.06;45.88
68189;DHT22;66299;47.514;19.218;2023-06-04T12:13:07;22.86;46.34
68189;DHT22;66299;47.514;19.218;2023-06-04T12:15:35;23.10;43.06
68189;DHT22;66299;47.514;19.218;2023-06-04T12:18:04;22.48;44.90
68189;DHT22;66299;47.514;19.218;2023-06-04T12:20:36;22.67;48.26
68189;DHT22;66299;47.514;19.218;2023-06-04T12:23:06;22.49;50.66
68189;DHT22;66299;47.514;19.218;2023-06-04T12:25:37;22.49;49.72
68189;DHT22;66299;47.514;19.218;2023-06-04T12:28:06;22.77;47.89
68189;DHT22;66299;47.514;19.218;2023-06-04T12:30:45;22.45;49.48
68189;DHT22;66299;47.514;19.218;2023-06-04T12:33:14;22.29;50.92
68189;DHT22;66299;47.514;19.218;2023-06-04T12:35:47;22.42;50.95
68189;DHT22;66299;47.514;19.218;2023-06-04T12:38:16;22.51;51.23
68189;DHT22;66299;47.514;19.218;2023-06-04T12:40:47;22.52;47.99
68189;DHT22;66299;47.514;19.218;2023-06-04T12:43:16;22.42;49.17
68189;DHT22;66299;47.514;19.218;2023-06-04T12:45:46;22.15;50.65
68189;DHT22;66299;47.514;19.218;2023-06-04T12:48:16;22.34;50.27
68189;DHT22;66299;47.514;19.218;2023-06-04T12:50:47;22.38;50.92
68189;DHT22;66299;47.514;19.218;2023-06-04T12:53:16;22.42;49.43
68189;DHT22;66299;47.514;19.218;2023-06-04T12:55:54;22.21;47.70
68189;DHT22;66299;47.514;19.218;2023-06-04T12:58:24;21.96;53.46
68189;DHT22;66299;47.514;19.218;2023-06-04T13:00:53;22.04;49.95
68189;DHT22;66299;47.514;19.218;2023-06-04T13:03:24;21.93;47.29
68189;DHT22;66299;47.514;19.218;2023-06-04T13:05:54;22.05;49.69
68189;DHT22;66299;47.514;19.218;2023-06-04T13:08:25;22.31;48.78
68189;DHT22;66299;47.514;19.218;2023-06-04T13:10:56;22.14;50.38
68189;DHT22;66299;47.514;19.218;2023-06-04T13:13:25;21.91;50.72
68189;DHT22;66299;47.514;19.218;2023-06-04T13:15:55;22.11;53.55
68189;DHT22;66299;47.514;19.218;2023-06-04T13:18:24;21.90;49.51
68189;DHT22;66299;47.514;19.218;2023-06-04T13:20:58;21.98;52.40
68189;DHT22;66299;47.514;19.218;2023-06-04T13:23:27;22.07;48.55
68189;DHT22;66299;47.514;19.218;2023-06-04T13:26:16;22.24;49.95
68189;DHT22;66299;47.514;19.218;2023-06-04T13:28:48;22.44;47.82
68189;DHT22;66299;47.514;19.218;2023-06-04T13:31:18;22.53;48.60
68189;DHT22;66299;47.514;19.218;2023-06-04T13:33:49;22.67;48.47
68189;DHT22;66299;47.514;19.218;2023-06-04T13:36:23;22.97;49.51
68189;DHT22;66299;47.514;19.218;2023-06-04T13:38:53;23.07;47.67
68189;DHT22;66299;47.514;19.218;2023-06-04T13:41:26;23.27;47.77
68189;DHT22;66299;47.514;19.218;2023-06-04T13:43:54;22.92;49.91
68189;DHT22;66299;47.514;19.218;2023-06-04T13:46:25;22.48;47.28
68189;DHT22;66299;47.514;19.218;2023-06-04T13:48:54;23.02;47.85
68189;DHT22;66299;47.514;19.218;2023-06-04T13:51:24;23.40;49.08
68189;DHT22;66299;47.514;19.218;2023-06-04T13:53:54;23.17;47.19
68189;DHT22;66299;47.514;19.218;2023-06-04T13:56:26;23.62;47.16
68189;DHT22;66299;47.514;19.218;2023-06-04T13:58:55;23.35;47.51
68189;DHT22;66299;47.514;19.218;2023-06-04T14:01:25;23.40;47.90
68189;DHT22;66299;47.514;19.218;2023-06-04T14:03:53;23.92;45.83
68189;DHT22;66299;47.514;19.218;2023-06-04T14:06:23;23.82;44.94
68189;DHT22;66299;47.514;19.218;2023-06-04T14:08:55;23.47;47.77
68189;DHT22;66299;47.514;19.218;2023-06-04T14:11:23;23.65;50.19
68189;DHT22;66299;47.514;19.218;2023-06-04T14:13:52;23.11;47.63
68189;DHT22;66299;47.514;19.218;2023-06-04T14:16:23;22.99;49.42
68189;DHT22;66299;47.514;19.218;2023-06-04T14:18:51;23.37;48.76
68189;DHT22;66299;47.514;19.218;2023-06-04T14:21:20;23.41;49.74
68189;DHT22;66299;47.514;19.218;2023-06-04T14:23:51;23.20;50.48
68189;DHT22;66299;47.514;19.218;2023-06-04T14:26:23;23.25;49.80
68189;DHT22;66299;47.514;19.218;2023-06-04T14:28:52;22.89;50.12
68189;DHT22;66299;47.514;19.218;2023-06-04T14:31:20;22.93;50.14
68189;DHT22;66299;47.514;19.218;2023-06-04T14:33:49;22.94;49.58
68189;DHT22;66299;47.514;19.218;2023-06-04T14:36:17;22.97;48.58
68189;DHT22;66299;47.514;19.218;2023-06-04T14:38:46;22.93;48.01
68189;DHT22;66299;47.514;19.218;2023-06-04T14:41:17;22.75;48.20
68189;DHT22;66299;47.514;19.218;2023-06-04T14:43:48;22.73;49.29
68189;DHT22;66299;47.514;19.218;2023-06-04T14:46:19;22.67;48.70
68189;DHT22;66299;47.514;19.218;2023-06-04T14:48:48;22.48;49.51
68189;DHT22;66299;47.514;19.218;2023-06-04T14:51:17;22.45;49.40
68189;DHT22;66299;47.514;19.218;2023-06-04T14:53:45;22.57;51.67
68189;DHT22;66299;47.514;19.218;2023-06-04T14:56:20;22.67;52.42
68189;DHT22;66299;47.514;19.218;2023-06-04T14:58:50;22.52;52.22
68189;DHT22;66299;47.514;19.218;2023-06-04T15:01:21;22.42;52.36
68189;DHT22;66299;47.514;19.218;2023-06-04T15:03:49;22.15;54.08
68189;DHT22;66299;47.514;19.218;2023-06-04T15:06:20;22.09;51.44
68189;DHT22;66299;47.514;19.218;2023-06-04T15:08:48;22.01;52.46
68189;DHT22;66299;47.514;19.218;2023-06-04T15:11:24;21.98;52.31
68189;DHT22;66299;47.514;19.218;2023-06-04T15:13:52;21.81;52.00
68189;DHT22;66299;47.514;19.218;2023-06-04T15:16:21;21.86;52.17
68189;DHT22;66299;47.514;19.218;2023-06-04T15:18:50;21.83;53.57
68189;DHT22;66299;47.514;19.218;2023-06-04T15:21:23;21.83;52.52
68189;DHT22;66299;47.514;19.218;2023-06-04T15:23:53;21.47;56.11
68189;DHT22;66299;47.514;19.218;2023-06-04T15:26:23;21.49;53.95
68189;DHT22;66299;47.514;19.218;2023-06-04T15:28:54;21.32;53.40
68189;DHT22;66299;47.514;19.218;2023-06-04T15:31:24;21.25;54.05
68189;DHT22;66299;47.514;19.218;2023-06-04T15:33:54;21.16;53.97
68189;DHT22;66299;47.514;19.218;2023-06-04T15:36:23;21.15;53.80
68189;DHT22;66299;47.514;19.218;2023-06-04T15:38:52;21.15;54.69
68189;DHT22;66299;47.514;19.218;2023-06-04T15:41:20;21.13;54.77